createdAt,value
2019-02-19T00:01:34.463Z,14.34
2019-02-19T00:04:03.622Z,14.34
2019-02-19T00:06:32.794Z,14.33
2019-02-19T00:09:01.882Z,14.31
2019-02-19T00:11:30.943Z,14.31
2019-02-19T00:14:00.003Z,14.28
2019-02-19T00:16:29.053Z,14.29
2019-02-19T00:18:58.093Z,14.29
2019-02-19T00:21:27.104Z,14.29
2019-02-19T00:23:56.167Z,14.29
2019-02-19T00:26:25.224Z,14.30
2019-02-19T00:28:54.239Z,14.29
2019-02-19T00:31:23.235Z,14.28
2019-02-19T00:33:52.275Z,14.28
2019-02-19T00:36:21.315Z,14.28
2019-02-19T00:38:50.355Z,14.26
2019-02-19T00:41:19.339Z,14.23
2019-02-19T00:43:48.370Z,14.24
2019-02-19T00:46:17.457Z,14.22
2019-02-19T00:48:46.506Z,14.20
2019-02-19T00:51:15.411Z,14.18
2019-02-19T00:53:44.566Z,14.19
2019-02-19T00:56:13.577Z,14.19
2019-02-19T00:58:42.628Z,14.18
2019-02-19T01:01:11.608Z,14.20
2019-02-19T01:03:40.667Z,14.21
2019-02-19T01:06:09.665Z,14.23
2019-02-19T01:08:38.724Z,14.26
2019-02-19T01:11:07.744Z,14.27
2019-02-19T01:13:36.779Z,14.28
2019-02-19T01:16:05.742Z,14.27
2019-02-19T01:18:34.790Z,14.28
2019-02-19T01:21:03.786Z,14.27
2019-02-19T01:23:32.835Z,14.24
2019-02-19T01:26:01.930Z,14.23
2019-02-19T01:28:30.981Z,14.21
2019-02-19T01:30:59.911Z,14.18
2019-02-19T01:33:28.903Z,14.13
2019-02-19T01:35:57.896Z,14.13
2019-02-19T01:38:26.994Z,14.12
2019-02-19T01:40:55.988Z,14.10
2019-02-19T01:43:25.037Z,14.10
2019-02-19T01:45:54.028Z,14.06
2019-02-19T01:48:23.121Z,14.06
2019-02-19T01:50:52.146Z,14.05
2019-02-19T01:53:21.198Z,14.05
2019-02-19T01:55:50.224Z,13.99
2019-02-19T01:58:19.295Z,13.98
2019-02-19T02:00:48.349Z,13.94
2019-02-19T02:03:17.277Z,13.90
2019-02-19T02:05:46.268Z,13.87
2019-02-19T02:08:15.261Z,13.82
2019-02-19T02:10:44.262Z,13.79
2019-02-19T02:13:13.174Z,13.72
2019-02-19T02:15:42.912Z,13.70
2019-02-19T02:18:12.020Z,13.66
2019-02-19T02:20:41.065Z,13.59
2019-02-19T02:23:10.095Z,13.57
2019-02-19T02:25:39.166Z,13.64
2019-02-19T02:28:08.140Z,13.71
2019-02-19T02:30:37.155Z,13.81
2019-02-19T02:33:06.183Z,13.86
2019-02-19T02:35:35.201Z,13.92
2019-02-19T02:38:04.240Z,13.98
2019-02-19T02:40:33.100Z,14.03
2019-02-19T02:43:02.101Z,14.08
2019-02-19T02:45:31.145Z,14.11
2019-02-19T02:48:00.222Z,14.13
2019-02-19T02:50:29.191Z,14.15
2019-02-19T02:52:58.088Z,14.17
2019-02-19T02:55:27.130Z,14.18
2019-02-19T02:57:56.146Z,14.22
2019-02-19T03:00:25.194Z,14.22
2019-02-19T03:02:54.121Z,14.22
2019-02-19T03:05:25.288Z,14.25
2019-02-19T03:07:56.901Z,14.24
2019-02-19T03:10:25.939Z,14.26
2019-02-19T03:12:55.004Z,14.28
2019-02-19T03:15:23.963Z,14.25
2019-02-19T03:17:52.994Z,14.24
2019-02-19T03:20:22.039Z,14.27
2019-02-19T03:22:50.979Z,14.28
2019-02-19T03:25:19.976Z,14.26
2019-02-19T03:27:48.897Z,14.27
2019-02-19T03:30:17.916Z,14.28
2019-02-19T03:32:46.795Z,14.29
2019-02-19T03:35:15.816Z,14.29
2019-02-19T03:37:44.824Z,14.28
2019-02-19T03:40:13.841Z,14.27
2019-02-19T03:42:42.826Z,14.24
2019-02-19T03:45:11.971Z,14.21
2019-02-19T03:47:41.037Z,14.20
2019-02-19T03:50:10.086Z,14.18
2019-02-19T03:52:38.976Z,14.15
2019-02-19T03:55:08.027Z,14.14
2019-02-19T03:57:37.362Z,14.14
2019-02-19T04:00:06.252Z,14.12
2019-02-19T04:02:35.197Z,14.12
2019-02-19T04:05:04.090Z,14.08
2019-02-19T04:07:33.122Z,14.07
2019-02-19T04:10:02.093Z,14.07
2019-02-19T04:12:31.067Z,14.06
2019-02-19T04:14:59.994Z,14.06
2019-02-19T04:17:28.945Z,14.06
2019-02-19T04:19:57.944Z,14.02
2019-02-19T04:22:26.975Z,14.00
2019-02-19T04:24:55.935Z,13.98
2019-02-19T04:27:24.830Z,13.97
2019-02-19T04:29:53.931Z,13.95
2019-02-19T04:32:22.976Z,13.94
2019-02-19T04:34:52.171Z,13.90
2019-02-19T04:37:21.202Z,13.88
2019-02-19T04:39:50.181Z,13.86
2019-02-19T04:42:19.304Z,13.85
2019-02-19T04:44:48.321Z,13.82
2019-02-19T04:47:17.381Z,13.79
2019-02-19T04:49:46.369Z,13.80
2019-02-19T04:52:15.443Z,13.79
2019-02-19T04:54:44.470Z,13.77
2019-02-19T04:57:13.623Z,13.73
2019-02-19T04:59:42.688Z,13.71
2019-02-19T05:02:11.737Z,13.66
2019-02-19T05:04:40.769Z,13.64
2019-02-19T05:07:09.869Z,13.62
2019-02-19T05:09:38.918Z,13.61
2019-02-19T05:12:07.998Z,13.58
2019-02-19T05:14:37.013Z,13.54
2019-02-19T05:17:06.090Z,13.52
2019-02-19T05:19:34.995Z,13.50
2019-02-19T05:22:04.055Z,13.52
2019-02-19T05:24:33.064Z,13.49
2019-02-19T05:27:02.135Z,13.51
2019-02-19T05:29:31.161Z,13.50
2019-02-19T05:32:00.193Z,13.47
2019-02-19T05:34:29.386Z,13.45
2019-02-19T05:36:58.474Z,13.44
2019-02-19T05:39:27.518Z,13.44
2019-02-19T05:41:56.588Z,13.44
2019-02-19T05:44:25.748Z,13.47
2019-02-19T05:46:54.736Z,13.49
2019-02-19T05:49:23.797Z,13.20
2019-02-19T05:51:52.869Z,13.51
2019-02-19T05:54:24.455Z,13.50
2019-02-19T05:56:53.522Z,13.49
2019-02-19T05:59:22.689Z,13.49
2019-02-19T06:01:51.690Z,13.47
2019-02-19T06:04:20.864Z,13.49
2019-02-19T06:06:49.915Z,13.51
2019-02-19T06:09:20.256Z,13.51
2019-02-19T06:11:49.307Z,13.51
2019-02-19T06:14:20.192Z,13.53
2019-02-19T06:16:49.256Z,13.52
2019-02-19T06:19:18.458Z,13.52
2019-02-19T06:21:47.498Z,13.52
2019-02-19T06:24:16.565Z,13.53
2019-02-19T06:26:45.639Z,13.56
2019-02-19T06:29:14.741Z,13.56
2019-02-19T06:31:43.837Z,13.56
2019-02-19T06:34:14.311Z,13.57
2019-02-19T06:36:43.436Z,13.51
2019-02-19T06:39:12.484Z,13.49
2019-02-19T06:41:41.555Z,13.44
2019-02-19T06:44:10.648Z,13.37
2019-02-19T06:46:39.765Z,13.33
2019-02-19T06:49:08.996Z,13.30
2019-02-19T06:51:38.045Z,13.29
2019-02-19T06:54:07.113Z,13.25
2019-02-19T06:56:36.099Z,13.25
2019-02-19T06:59:05.254Z,13.23
2019-02-19T07:01:53.922Z,13.24
2019-02-19T07:04:26.847Z,13.26
2019-02-19T07:06:55.828Z,13.25
2019-02-19T07:09:24.945Z,13.28
2019-02-19T07:11:53.988Z,13.29
2019-02-19T07:14:23.001Z,13.33
2019-02-19T07:16:52.116Z,13.37
2019-02-19T07:19:21.324Z,13.42
2019-02-19T07:21:50.399Z,13.42
2019-02-19T07:24:19.489Z,13.42
2019-02-19T07:26:48.804Z,13.43
2019-02-19T07:29:17.951Z,13.47
2019-02-19T07:31:47.019Z,13.52
2019-02-19T07:34:16.101Z,13.58
2019-02-19T07:36:45.201Z,13.62
2019-02-19T07:39:14.293Z,13.67
2019-02-19T07:41:43.229Z,13.68
2019-02-19T07:44:12.227Z,13.69
2019-02-19T07:46:41.316Z,13.71
2019-02-19T07:49:10.279Z,13.71
2019-02-19T07:51:39.400Z,13.70
2019-02-19T07:54:08.365Z,13.73
2019-02-19T07:56:37.447Z,13.73
2019-02-19T07:59:06.565Z,13.71
2019-02-19T08:01:35.565Z,13.72
2019-02-19T08:04:04.660Z,13.71
2019-02-19T08:06:33.706Z,13.71
2019-02-19T08:09:03.642Z,13.73
2019-02-19T08:11:32.738Z,13.72
2019-02-19T08:14:03.393Z,13.74
2019-02-19T08:16:33.543Z,13.75
2019-02-19T08:19:02.695Z,13.81
2019-02-19T08:21:31.773Z,13.82
2019-02-19T08:24:00.866Z,13.88
2019-02-19T08:26:30.008Z,13.34
2019-02-19T08:29:07.136Z,14.00
2019-02-19T08:31:29.869Z,14.05
2019-02-19T08:33:58.959Z,14.08
2019-02-19T08:36:29.677Z,14.10
2019-02-19T08:38:59.335Z,14.10
2019-02-19T08:41:28.383Z,14.08
2019-02-19T08:43:57.452Z,14.09
2019-02-19T08:46:26.563Z,14.14
2019-02-19T08:48:55.641Z,14.25
2019-02-19T08:51:31.552Z,14.51
2019-02-19T08:54:00.717Z,14.95
2019-02-19T08:56:29.885Z,15.36
2019-02-19T08:58:59.036Z,15.66
2019-02-19T09:01:28.097Z,16.82
2019-02-19T09:03:57.355Z,18.22
2019-02-19T09:06:27.721Z,19.48
2019-02-19T09:08:59.705Z,20.14
2019-02-19T09:11:32.624Z,21.08
2019-02-19T09:14:04.320Z,22.08
2019-02-19T09:16:35.191Z,23.05
2019-02-19T09:19:05.611Z,23.84
2019-02-19T09:21:36.446Z,24.72
2019-02-19T09:24:09.436Z,25.41
2019-02-19T09:26:38.094Z,26.12
2019-02-19T09:29:11.791Z,26.96
2019-02-19T09:31:42.639Z,27.63
2019-02-19T09:34:13.767Z,28.32
2019-02-19T09:36:44.763Z,28.94
2019-02-19T09:39:14.552Z,29.56
2019-02-19T09:41:44.610Z,30.29
2019-02-19T09:44:14.859Z,30.88
2019-02-19T09:46:49.264Z,31.38
2019-02-19T09:49:21.436Z,30.81
2019-02-19T09:51:51.632Z,30.94
2019-02-19T09:54:26.153Z,30.82
2019-02-19T09:56:59.852Z,30.94
2019-02-19T09:59:30.005Z,31.48
2019-02-19T10:02:35.940Z,31.53
2019-02-19T10:05:17.402Z,30.75
2019-02-19T10:07:53.269Z,29.19
2019-02-19T10:10:23.789Z,27.57
2019-02-19T10:12:55.577Z,26.29
2019-02-19T10:15:25.710Z,25.87
2019-02-19T10:17:55.710Z,25.59
2019-02-19T10:20:25.705Z,24.83
2019-02-19T10:22:56.196Z,24.64
2019-02-19T10:25:27.981Z,23.98
2019-02-19T10:27:57.973Z,24.12
2019-02-19T10:30:28.467Z,23.63
2019-02-19T10:32:58.649Z,25.20
2019-02-19T10:35:29.172Z,27.38
2019-02-19T10:38:03.086Z,29.44
2019-02-19T10:40:33.353Z,30.89
2019-02-19T10:43:03.425Z,32.47
2019-02-19T10:45:33.897Z,33.68
2019-02-19T10:48:06.903Z,34.13
2019-02-19T10:50:40.960Z,34.17
2019-02-19T10:53:13.138Z,34.69
2019-02-19T10:55:43.335Z,34.15
2019-02-19T10:58:22.246Z,34.47
2019-02-19T11:00:48.600Z,34.42
2019-02-19T11:03:21.334Z,34.85
2019-02-19T11:05:51.920Z,33.96
2019-02-19T11:08:23.009Z,32.34
2019-02-19T11:10:53.847Z,30.56
2019-02-19T11:13:30.506Z,28.90
2019-02-19T11:16:00.621Z,27.49
2019-02-19T11:18:35.172Z,26.21
2019-02-19T11:21:07.683Z,25.92
2019-02-19T11:23:40.299Z,25.30
2019-02-19T11:26:16.704Z,25.96
2019-02-19T11:28:47.007Z,28.39
2019-02-19T11:31:18.931Z,30.68
2019-02-19T11:33:50.156Z,31.69
2019-02-19T11:36:20.244Z,31.63
2019-02-19T11:38:50.695Z,30.59
2019-02-19T11:41:20.755Z,29.65
2019-02-19T11:43:53.489Z,29.06
2019-02-19T11:46:24.257Z,27.96
2019-02-19T11:48:56.261Z,28.55
2019-02-19T11:51:29.997Z,29.75
2019-02-19T11:54:00.313Z,29.56
2019-02-19T11:56:30.975Z,29.44
2019-02-19T11:59:02.306Z,28.49
2019-02-19T12:01:33.282Z,27.50
2019-02-19T12:04:03.311Z,26.50
2019-02-19T12:06:34.116Z,25.44
2019-02-19T12:09:12.797Z,24.63
2019-02-19T12:11:42.785Z,24.00
2019-02-19T12:14:13.056Z,23.39
2019-02-19T12:16:43.646Z,22.94
2019-02-19T12:19:13.691Z,23.92
2019-02-19T12:21:43.742Z,24.27
2019-02-19T12:24:12.809Z,24.37
2019-02-19T12:26:41.895Z,25.14
2019-02-19T12:29:10.887Z,24.75
2019-02-19T12:31:39.969Z,24.12
2019-02-19T12:34:08.972Z,23.52
2019-02-19T12:36:37.934Z,23.01
2019-02-19T12:39:07.036Z,22.44
2019-02-19T12:41:36.113Z,21.95
2019-02-19T12:44:05.119Z,21.55
2019-02-19T12:46:34.157Z,21.48
2019-02-19T12:49:03.221Z,21.39
2019-02-19T12:51:32.215Z,21.08
2019-02-19T12:54:01.280Z,20.83
2019-02-19T12:56:30.332Z,20.48
2019-02-19T12:58:59.350Z,20.30
2019-02-19T13:01:28.430Z,20.11
2019-02-19T13:03:57.425Z,19.90
2019-02-19T13:06:26.465Z,19.69
2019-02-19T13:08:56.313Z,19.65
2019-02-19T13:11:25.359Z,19.61
2019-02-19T13:13:54.369Z,19.58
2019-02-19T13:16:23.308Z,19.47
2019-02-19T13:18:52.361Z,19.34
2019-02-19T13:21:21.401Z,19.31
2019-02-19T13:23:50.654Z,19.26
2019-02-19T13:26:19.686Z,19.13
2019-02-19T13:28:48.708Z,19.06
2019-02-19T13:31:17.744Z,19.06
2019-02-19T13:33:46.729Z,19.11
2019-02-19T13:36:15.783Z,19.08
2019-02-19T13:38:44.968Z,19.08
2019-02-19T13:41:14.017Z,19.08
2019-02-19T13:43:43.000Z,19.09
2019-02-19T13:46:12.058Z,19.06
2019-02-19T13:48:41.061Z,19.08
2019-02-19T13:51:10.091Z,18.99
2019-02-19T13:53:53.836Z,18.93
2019-02-19T13:56:22.819Z,18.95
2019-02-19T13:58:51.954Z,18.87
2019-02-19T14:01:21.064Z,18.78
2019-02-19T14:03:50.088Z,18.70
2019-02-19T14:06:19.081Z,18.63
2019-02-19T14:08:48.118Z,18.59
2019-02-19T14:11:17.239Z,18.56
2019-02-19T14:14:08.271Z,18.62
2019-02-19T14:16:58.867Z,18.65
2019-02-19T14:19:49.848Z,18.55
2019-02-19T14:22:38.754Z,18.46
2019-02-19T14:25:25.873Z,18.39
2019-02-19T14:28:17.575Z,18.31
2019-02-19T14:31:17.617Z,18.23
2019-02-19T14:34:14.859Z,18.13
2019-02-19T14:37:01.735Z,18.02
2019-02-19T14:40:10.335Z,17.88
2019-02-19T14:42:53.118Z,17.78
2019-02-19T14:45:53.400Z,17.71
2019-02-19T14:48:50.449Z,17.79
2019-02-19T14:51:33.604Z,17.87
2019-02-19T14:54:24.415Z,17.93
2019-02-19T14:57:24.273Z,17.91
2019-02-19T15:00:15.014Z,17.75
2019-02-19T15:02:56.801Z,17.59
2019-02-19T15:05:46.726Z,17.44
2019-02-19T15:08:25.941Z,17.35
2019-02-19T15:11:22.827Z,17.35
2019-02-19T15:14:13.843Z,17.35
2019-02-19T15:17:19.987Z,17.37
2019-02-19T15:20:07.980Z,17.38
2019-02-19T15:22:59.048Z,17.32
2019-02-19T15:25:49.244Z,17.29
2019-02-19T15:28:37.352Z,17.23
2019-02-19T15:31:43.685Z,17.13
2019-02-19T15:34:30.250Z,17.08
2019-02-19T15:37:27.053Z,16.98
2019-02-19T15:40:17.802Z,16.92
2019-02-19T15:43:04.522Z,16.88
2019-02-19T15:45:52.549Z,16.88
2019-02-19T15:48:46.602Z,16.80
2019-02-19T15:51:28.037Z,16.75
2019-02-19T15:54:19.983Z,16.66
2019-02-19T15:57:13.124Z,16.66
2019-02-19T15:59:59.874Z,16.63
2019-02-19T16:03:02.943Z,16.55
2019-02-19T16:06:02.557Z,16.49
2019-02-19T16:08:50.589Z,16.46
2019-02-19T16:11:38.453Z,16.38
2019-02-19T16:14:20.586Z,16.37
2019-02-19T16:17:08.003Z,16.32
2019-02-19T16:19:43.045Z,16.29
2019-02-19T16:22:32.528Z,16.21
2019-02-19T16:25:20.523Z,16.13
2019-02-19T16:28:08.486Z,16.03
2019-02-19T16:30:55.394Z,16.00
2019-02-19T16:33:49.639Z,15.98
2019-02-19T16:36:40.402Z,15.93
2019-02-19T16:39:31.494Z,15.94
2019-02-19T16:42:19.472Z,15.98
2019-02-19T16:45:05.984Z,16.01
2019-02-19T16:47:45.144Z,15.99
2019-02-19T16:50:51.296Z,15.94
2019-02-19T16:53:48.409Z,15.93
2019-02-19T16:56:29.911Z,15.90
2019-02-19T16:59:36.161Z,15.87
2019-02-19T17:02:28.068Z,15.86
2019-02-19T17:05:16.184Z,15.82
2019-02-19T17:07:50.395Z,15.77
2019-02-19T17:10:28.294Z,15.75
2019-02-19T17:13:05.431Z,15.69
2019-02-19T17:15:52.112Z,15.67
2019-02-19T17:18:39.065Z,15.61
2019-02-19T17:21:19.442Z,15.61
2019-02-19T17:24:07.421Z,15.57
2019-02-19T17:26:53.902Z,15.55
2019-02-19T17:29:45.314Z,15.55
2019-02-19T17:32:48.621Z,15.56
2019-02-19T17:35:26.860Z,15.57
2019-02-19T17:38:23.725Z,15.52
2019-02-19T17:41:18.226Z,15.43
2019-02-19T17:43:57.951Z,15.30
2019-02-19T17:46:44.539Z,15.19
2019-02-19T17:49:24.405Z,15.13
2019-02-19T17:52:14.494Z,14.65
2019-02-19T17:54:55.896Z,14.96
2019-02-19T17:57:59.143Z,14.85
2019-02-19T18:00:38.336Z,14.78
2019-02-19T18:03:20.100Z,14.69
2019-02-19T18:06:10.891Z,14.63
2019-02-19T18:09:13.994Z,14.57
2019-02-19T18:11:59.991Z,14.48
2019-02-19T18:14:50.856Z,14.39
2019-02-19T18:17:29.953Z,14.29
2019-02-19T18:19:59.956Z,14.27
2019-02-19T18:22:29.019Z,14.23
2019-02-19T18:24:57.993Z,14.21
2019-02-19T18:27:27.086Z,14.17
2019-02-19T18:29:56.181Z,14.14
2019-02-19T18:32:25.286Z,14.10
2019-02-19T18:34:54.568Z,14.06
2019-02-19T18:37:23.680Z,14.01
2019-02-19T18:39:52.763Z,13.97
2019-02-19T18:42:21.836Z,13.95
2019-02-19T18:44:51.132Z,13.91
2019-02-19T18:47:21.740Z,13.87
2019-02-19T18:49:50.886Z,13.85
2019-02-19T18:52:20.272Z,13.83
2019-02-19T18:54:50.401Z,13.82
2019-02-19T18:57:19.695Z,13.82
2019-02-19T18:59:50.522Z,13.79
2019-02-19T19:02:19.884Z,13.77
2019-02-19T19:04:48.823Z,13.77
2019-02-19T19:07:19.446Z,13.78
2019-02-19T19:09:48.642Z,13.79
2019-02-19T19:12:17.718Z,13.81
2019-02-19T19:14:46.729Z,13.85
2019-02-19T19:17:15.728Z,13.88
2019-02-19T19:19:44.805Z,13.93
2019-02-19T19:22:14.980Z,13.97
2019-02-19T19:24:44.005Z,13.99
2019-02-19T19:27:13.145Z,13.99
2019-02-19T19:29:42.220Z,13.98
2019-02-19T19:32:11.297Z,13.97
2019-02-19T19:34:40.387Z,13.96
2019-02-19T19:37:09.456Z,13.96
2019-02-19T19:39:38.544Z,13.97
2019-02-19T19:42:07.650Z,13.98
2019-02-19T19:44:36.702Z,13.98
2019-02-19T19:47:05.798Z,13.97
2019-02-19T19:49:34.932Z,14.00
2019-02-19T19:52:04.040Z,13.97
2019-02-19T19:54:33.079Z,13.99
2019-02-19T19:57:02.094Z,13.97
2019-02-19T19:59:31.061Z,13.91
2019-02-19T20:02:00.146Z,13.84
2019-02-19T20:04:29.345Z,13.80
2019-02-19T20:06:58.411Z,13.74
2019-02-19T20:09:27.427Z,13.71
2019-02-19T20:11:56.451Z,13.69
2019-02-19T20:14:25.504Z,13.68
2019-02-19T20:16:54.496Z,13.69
2019-02-19T20:19:23.565Z,13.70
2019-02-19T20:21:52.605Z,13.68
2019-02-19T20:24:21.660Z,13.66
2019-02-19T20:26:50.732Z,13.63
2019-02-19T20:29:19.858Z,13.58
2019-02-19T20:31:48.889Z,13.53
2019-02-19T20:34:18.105Z,13.52
2019-02-19T20:36:47.241Z,13.52
2019-02-19T20:39:16.336Z,13.54
2019-02-19T20:41:45.311Z,13.55
2019-02-19T20:44:14.241Z,13.54
2019-02-19T20:46:43.401Z,13.51
2019-02-19T20:49:12.346Z,13.49
2019-02-19T20:51:41.340Z,13.46
2019-02-19T20:54:10.357Z,13.45
2019-02-19T20:56:39.302Z,13.44
2019-02-19T20:59:08.395Z,13.42
2019-02-19T21:01:37.433Z,13.38
2019-02-19T21:04:06.344Z,13.36
2019-02-19T21:06:35.279Z,13.32
2019-02-19T21:09:04.501Z,13.24
2019-02-19T21:11:33.597Z,13.20
2019-02-19T21:14:02.589Z,13.16
2019-02-19T21:16:31.608Z,13.12
2019-02-19T21:19:00.608Z,13.09
2019-02-19T21:21:29.630Z,13.08
2019-02-19T21:23:58.695Z,13.10
2019-02-19T21:26:27.719Z,13.10
2019-02-19T21:28:56.712Z,13.10
2019-02-19T21:31:25.721Z,13.08
2019-02-19T21:33:54.721Z,13.05
2019-02-19T21:36:23.659Z,13.00
2019-02-19T21:38:52.731Z,12.98
2019-02-19T21:41:21.669Z,12.94
2019-02-19T21:43:50.512Z,12.91
2019-02-19T21:46:19.663Z,12.89
2019-02-19T21:48:48.641Z,12.86
2019-02-19T21:51:17.709Z,12.89
2019-02-19T21:53:46.684Z,12.94
2019-02-19T21:56:15.671Z,12.96
2019-02-19T21:58:44.743Z,12.97
2019-02-19T22:01:13.795Z,13.00
2019-02-19T22:03:42.716Z,13.03
2019-02-19T22:06:11.783Z,13.05
2019-02-19T22:08:40.778Z,13.07
2019-02-19T22:11:09.728Z,13.06
2019-02-19T22:13:38.654Z,13.04
2019-02-19T22:16:07.672Z,13.02
2019-02-19T22:18:36.676Z,12.99
2019-02-19T22:21:13.908Z,12.97
2019-02-19T22:23:42.877Z,12.97
2019-02-19T22:26:11.876Z,12.94
2019-02-19T22:28:40.876Z,12.89
2019-02-19T22:31:09.856Z,12.84
2019-02-19T22:33:38.854Z,12.80
2019-02-19T22:36:07.847Z,12.73
2019-02-19T22:38:36.936Z,12.64
2019-02-19T22:41:05.942Z,12.57
2019-02-19T22:43:34.965Z,12.51
2019-02-19T22:46:04.884Z,12.47
2019-02-19T22:48:33.942Z,12.40
2019-02-19T22:51:03.023Z,12.35
2019-02-19T22:53:42.627Z,12.29
2019-02-19T22:56:17.303Z,12.24
2019-02-19T22:58:46.361Z,12.19
2019-02-19T23:01:43.181Z,12.14
2019-02-19T23:04:12.098Z,12.08
2019-02-19T23:06:41.100Z,12.03
2019-02-19T23:09:10.147Z,11.99
2019-02-19T23:11:39.079Z,11.97
2019-02-19T23:14:08.183Z,11.93
2019-02-19T23:16:37.208Z,11.90
2019-02-19T23:19:06.195Z,11.91
2019-02-19T23:21:35.162Z,11.94
2019-02-19T23:24:04.062Z,11.97
2019-02-19T23:26:33.096Z,12.00
2019-02-19T23:29:02.193Z,12.01
2019-02-19T23:31:31.122Z,12.02
2019-02-19T23:34:00.204Z,12.05
2019-02-19T23:36:50.714Z,12.09
2019-02-19T23:39:19.837Z,12.12
2019-02-19T23:41:48.964Z,12.17
2019-02-19T23:44:18.044Z,12.21
2019-02-19T23:46:46.999Z,12.25
2019-02-19T23:49:16.014Z,12.24
2019-02-19T23:51:45.040Z,12.22
2019-02-19T23:54:14.120Z,12.21
2019-02-19T23:56:43.189Z,12.20
2019-02-19T23:59:12.258Z,12.19
